sensor_id;sensor_type;location;lat;lon;timestamp;pressure;altitude;pressure_sealevel;temperature;humidity
46714;BME280;32445;51.376;10.874;2022-12-18T00:01:41;100843.81;;;-6.32;50.02
46714;BME280;32445;51.376;10.874;2022-12-18T00:04:41;100849.47;;;-6.36;49.47
46714;BME280;32445;51.376;10.874;2022-12-18T00:07:42;100855.19;;;-6.38;49.94
46714;BME280;32445;51.376;10.874;2022-12-18T00:10:43;100857.53;;;-6.41;49.63
46714;BME280;32445;51.376;10.874;2022-12-18T00:13:44;100860.72;;;-6.44;49.82
46714;BME280;32445;51.376;10.874;2022-12-18T00:16:45;100856.25;;;-6.48;49.92
46714;BME280;32445;51.376;10.874;2022-12-18T00:19:46;100854.47;;;-6.49;50.12
46714;BME280;32445;51.376;10.874;2022-12-18T00:22:46;100852.66;;;-6.52;49.82
46714;BME280;32445;51.376;10.874;2022-12-18T00:25:47;100848.19;;;-6.56;49.87
46714;BME280;32445;51.376;10.874;2022-12-18T00:28:47;100847.09;;;-6.59;49.70
46714;BME280;32445;51.376;10.874;2022-12-18T00:31:48;100858.88;;;-6.60;49.79
46714;BME280;32445;51.376;10.874;2022-12-18T00:34:48;100853.63;;;-6.63;50.04
46714;BME280;32445;51.376;10.874;2022-12-18T00:37:49;100848.34;;;-6.66;49.76
46714;BME280;32445;51.376;10.874;2022-12-18T00:40:49;100853.19;;;-6.69;49.88
46714;BME280;32445;51.376;10.874;2022-12-18T00:43:50;100856.28;;;-6.73;49.97
46714;BME280;32445;51.376;10.874;2022-12-18T00:46:50;100860.38;;;-6.75;49.96
46714;BME280;32445;51.376;10.874;2022-12-18T00:49:51;100866.09;;;-6.78;49.94
46714;BME280;32445;51.376;10.874;2022-12-18T00:52:51;100869.31;;;-6.81;49.63
46714;BME280;32445;51.376;10.874;2022-12-18T00:55:52;100868.34;;;-6.83;49.98
46714;BME280;32445;51.376;10.874;2022-12-18T00:58:52;100874.81;;;-6.86;49.96
46714;BME280;32445;51.376;10.874;2022-12-18T01:01:52;100867.94;;;-6.89;49.91
46714;BME280;32445;51.376;10.874;2022-12-18T01:04:53;100874.53;;;-6.91;49.62
46714;BME280;32445;51.376;10.874;2022-12-18T01:07:53;100872.66;;;-6.93;49.64
46714;BME280;32445;51.376;10.874;2022-12-18T01:10:54;100878.41;;;-6.96;49.91
46714;BME280;32445;51.376;10.874;2022-12-18T01:13:55;100885.00;;;-6.98;49.73
46714;BME280;32445;51.376;10.874;2022-12-18T01:16:55;100891.59;;;-7.00;49.71
46714;BME280;32445;51.376;10.874;2022-12-18T01:19:55;100893.13;;;-7.02;49.89
46714;BME280;32445;51.376;10.874;2022-12-18T01:22:56;100885.34;;;-7.05;50.02
46714;BME280;32445;51.376;10.874;2022-12-18T01:25:56;100885.25;;;-7.07;49.59
46714;BME280;32445;51.376;10.874;2022-12-18T01:28:57;100881.78;;;-7.09;49.66
46714;BME280;32445;51.376;10.874;2022-12-18T01:31:57;100886.72;;;-7.10;49.78
46714;BME280;32445;51.376;10.874;2022-12-18T01:34:58;100882.34;;;-7.13;49.84
46714;BME280;32445;51.376;10.874;2022-12-18T01:37:58;100898.13;;;-7.16;49.75
46714;BME280;32445;51.376;10.874;2022-12-18T01:40:59;100893.00;;;-7.17;49.79
46714;BME280;32445;51.376;10.874;2022-12-18T01:44:00;100891.13;;;-7.20;49.91
46714;BME280;32445;51.376;10.874;2022-12-18T01:47:00;100885.88;;;-7.23;49.63
46714;BME280;32445;51.376;10.874;2022-12-18T01:50:29;100904.88;;;-7.28;49.75
46714;BME280;32445;51.376;10.874;2022-12-18T01:53:30;100899.91;;;-7.26;49.88
46714;BME280;32445;51.376;10.874;2022-12-18T01:56:30;100909.06;;;-7.28;49.78
46714;BME280;32445;51.376;10.874;2022-12-18T01:59:32;100907.19;;;-7.31;49.67
46714;BME280;32445;51.376;10.874;2022-12-18T02:02:33;100901.19;;;-7.33;49.56
46714;BME280;32445;51.376;10.874;2022-12-18T02:08:47;100913.59;;;-7.36;49.83
46714;BME280;32445;51.376;10.874;2022-12-18T02:11:58;100930.16;;;-7.40;49.45
46714;BME280;32445;51.376;10.874;2022-12-18T02:15:05;100936.84;;;-7.40;49.41
46714;BME280;32445;51.376;10.874;2022-12-18T02:18:11;100932.47;;;-7.43;49.70
46714;BME280;32445;51.376;10.874;2022-12-18T02:28:00;100915.91;;;-7.51;49.60
46714;BME280;32445;51.376;10.874;2022-12-18T02:31:04;100914.94;;;-7.53;49.77
46714;BME280;32445;51.376;10.874;2022-12-18T02:34:07;100917.38;;;-7.55;49.72
46714;BME280;32445;51.376;10.874;2022-12-18T02:37:13;100911.97;;;-7.59;49.45
46714;BME280;32445;51.376;10.874;2022-12-18T02:40:17;100921.19;;;-7.60;49.42
46714;BME280;32445;51.376;10.874;2022-12-18T02:43:18;100905.09;;;-7.62;49.51
46714;BME280;32445;51.376;10.874;2022-12-18T02:46:31;100907.28;;;-7.67;49.75
46714;BME280;32445;51.376;10.874;2022-12-18T02:53:24;100913.00;;;-7.69;49.77
46714;BME280;32445;51.376;10.874;2022-12-18T02:56:30;100909.69;;;-7.68;49.74
46714;BME280;32445;51.376;10.874;2022-12-18T02:59:39;100916.28;;;-7.70;50.10
46714;BME280;32445;51.376;10.874;2022-12-18T03:06:09;100914.44;;;-7.73;49.70
46714;BME280;32445;51.376;10.874;2022-12-18T03:09:15;100925.06;;;-7.77;49.79
46714;BME280;32445;51.376;10.874;2022-12-18T03:12:18;100917.28;;;-7.80;49.60
46714;BME280;32445;51.376;10.874;2022-12-18T03:15:28;100915.63;;;-7.79;50.00
46714;BME280;32445;51.376;10.874;2022-12-18T03:18:47;100919.69;;;-7.82;49.49
46714;BME280;32445;51.376;10.874;2022-12-18T03:21:53;100927.38;;;-7.80;49.93
46714;BME280;32445;51.376;10.874;2022-12-18T03:24:56;100923.09;;;-7.81;49.83
46714;BME280;32445;51.376;10.874;2022-12-18T03:27:59;100927.16;;;-7.83;49.66
46714;BME280;32445;51.376;10.874;2022-12-18T03:31:02;100933.84;;;-7.84;49.85
46714;BME280;32445;51.376;10.874;2022-12-18T03:34:09;100931.09;;;-7.87;49.89
46714;BME280;32445;51.376;10.874;2022-12-18T03:37:13;100929.38;;;-7.88;49.87
46714;BME280;32445;51.376;10.874;2022-12-18T03:40:13;100934.31;;;-7.89;49.82
46714;BME280;32445;51.376;10.874;2022-12-18T03:43:20;100929.91;;;-7.92;49.90
46714;BME280;32445;51.376;10.874;2022-12-18T03:46:41;100927.28;;;-7.93;49.74
46714;BME280;32445;51.376;10.874;2022-12-18T03:53:02;100916.00;;;-7.98;49.91
46714;BME280;32445;51.376;10.874;2022-12-18T03:56:06;100914.13;;;-8.01;49.87
46714;BME280;32445;51.376;10.874;2022-12-18T03:59:09;100903.94;;;-8.03;49.76
46714;BME280;32445;51.376;10.874;2022-12-18T04:02:11;100907.25;;;-8.04;49.78
46714;BME280;32445;51.376;10.874;2022-12-18T04:05:13;100900.44;;;-8.05;49.91
46714;BME280;32445;51.376;10.874;2022-12-18T04:08:15;100910.53;;;-8.05;49.83
46714;BME280;32445;51.376;10.874;2022-12-18T04:11:15;100908.66;;;-8.07;49.90
46714;BME280;32445;51.376;10.874;2022-12-18T04:14:16;100893.44;;;-8.09;49.81
46714;BME280;32445;51.376;10.874;2022-12-18T04:17:16;100898.38;;;-8.10;49.79
46714;BME280;32445;51.376;10.874;2022-12-18T04:20:17;100894.94;;;-8.11;49.69
46714;BME280;32445;51.376;10.874;2022-12-18T04:23:18;100907.44;;;-8.12;49.82
46714;BME280;32445;51.376;10.874;2022-12-18T04:26:18;100901.44;;;-8.14;49.59
46714;BME280;32445;51.376;10.874;2022-12-18T04:29:18;100901.31;;;-8.16;50.00
46714;BME280;32445;51.376;10.874;2022-12-18T04:32:18;100901.09;;;-8.19;49.64
46714;BME280;32445;51.376;10.874;2022-12-18T04:35:19;100901.88;;;-8.20;49.80
46714;BME280;32445;51.376;10.874;2022-12-18T04:38:19;100904.16;;;-8.23;49.65
46714;BME280;32445;51.376;10.874;2022-12-18T04:41:19;100909.97;;;-8.24;49.65
46714;BME280;32445;51.376;10.874;2022-12-18T04:44:20;100911.50;;;-8.26;49.94
46714;BME280;32445;51.376;10.874;2022-12-18T04:47:20;100919.59;;;-8.30;49.98
46714;BME280;32445;51.376;10.874;2022-12-18T04:50:20;100917.84;;;-8.31;49.66
46714;BME280;32445;51.376;10.874;2022-12-18T04:53:21;100925.19;;;-8.35;49.67
46714;BME280;32445;51.376;10.874;2022-12-18T04:56:21;100924.22;;;-8.37;49.93
46714;BME280;32445;51.376;10.874;2022-12-18T04:59:22;100933.28;;;-8.39;49.41
46714;BME280;32445;51.376;10.874;2022-12-18T05:02:22;100926.47;;;-8.40;49.74
46714;BME280;32445;51.376;10.874;2022-12-18T05:05:22;100936.44;;;-8.41;49.93
46714;BME280;32445;51.376;10.874;2022-12-18T05:08:23;100923.66;;;-8.44;49.87
46714;BME280;32445;51.376;10.874;2022-12-18T05:11:23;100927.72;;;-8.46;49.68
46714;BME280;32445;51.376;10.874;2022-12-18T05:14:24;100944.34;;;-8.48;49.85
46714;BME280;32445;51.376;10.874;2022-12-18T05:17:24;100934.94;;;-8.51;49.39
46714;BME280;32445;51.376;10.874;2022-12-18T05:20:25;100937.34;;;-8.53;49.53
46714;BME280;32445;51.376;10.874;2022-12-18T05:23:25;100939.00;;;-8.53;49.49
46714;BME280;32445;51.376;10.874;2022-12-18T05:26:26;100938.78;;;-8.56;49.65
46714;BME280;32445;51.376;10.874;2022-12-18T05:29:26;100937.75;;;-8.58;49.86
46714;BME280;32445;51.376;10.874;2022-12-18T05:32:26;100931.00;;;-8.59;49.83
46714;BME280;32445;51.376;10.874;2022-12-18T05:35:27;100936.78;;;-8.60;49.45
46714;BME280;32445;51.376;10.874;2022-12-18T05:38:28;100934.03;;;-8.63;49.53
46714;BME280;32445;51.376;10.874;2022-12-18T05:41:29;100935.66;;;-8.64;49.40
46714;BME280;32445;51.376;10.874;2022-12-18T05:44:29;100935.56;;;-8.65;49.48
46714;BME280;32445;51.376;10.874;2022-12-18T05:47:30;100933.72;;;-8.68;49.53
46714;BME280;32445;51.376;10.874;2022-12-18T05:50:30;100939.50;;;-8.69;49.64
46714;BME280;32445;51.376;10.874;2022-12-18T05:53:34;100939.41;;;-8.71;49.47
46714;BME280;32445;51.376;10.874;2022-12-18T05:56:34;100941.81;;;-8.72;49.36
46714;BME280;32445;51.376;10.874;2022-12-18T05:59:35;100939.19;;;-8.74;49.51
46714;BME280;32445;51.376;10.874;2022-12-18T06:02:35;100937.31;;;-8.76;49.45
46714;BME280;32445;51.376;10.874;2022-12-18T06:05:41;100943.84;;;-8.78;49.36
46714;BME280;32445;51.376;10.874;2022-12-18T06:08:42;100954.69;;;-8.79;49.45
46714;BME280;32445;51.376;10.874;2022-12-18T06:11:42;100950.31;;;-8.82;49.40
46714;BME280;32445;51.376;10.874;2022-12-18T06:14:43;100953.56;;;-8.83;49.40
46714;BME280;32445;51.376;10.874;2022-12-18T06:17:43;100961.00;;;-8.84;49.64
46714;BME280;32445;51.376;10.874;2022-12-18T06:20:44;100968.44;;;-8.86;49.68
46714;BME280;32445;51.376;10.874;2022-12-18T06:23:44;100962.44;;;-8.88;49.59
46714;BME280;32445;51.376;10.874;2022-12-18T06:26:44;100962.31;;;-8.90;49.38
46714;BME280;32445;51.376;10.874;2022-12-18T06:29:45;100962.19;;;-8.91;49.51
46714;BME280;32445;51.376;10.874;2022-12-18T06:32:45;100968.00;;;-8.92;49.48
46714;BME280;32445;51.376;10.874;2022-12-18T06:35:46;100967.63;;;-8.97;49.38
46714;BME280;32445;51.376;10.874;2022-12-18T06:38:46;100970.94;;;-8.98;49.65
46714;BME280;32445;51.376;10.874;2022-12-18T06:41:47;100965.66;;;-9.01;49.47
46714;BME280;32445;51.376;10.874;2022-12-18T06:44:47;100971.44;;;-9.02;49.36
46714;BME280;32445;51.376;10.874;2022-12-18T06:47:47;100972.09;;;-9.05;49.44
46714;BME280;32445;51.376;10.874;2022-12-18T06:50:48;100962.78;;;-9.06;49.48
46714;BME280;32445;51.376;10.874;2022-12-18T06:53:48;100962.66;;;-9.07;49.43
46714;BME280;32445;51.376;10.874;2022-12-18T06:56:49;100971.75;;;-9.09;49.46
46714;BME280;32445;51.376;10.874;2022-12-18T06:59:50;100973.38;;;-9.10;49.50
46714;BME280;32445;51.376;10.874;2022-12-18T07:02:50;100972.38;;;-9.12;49.41
46714;BME280;32445;51.376;10.874;2022-12-18T07:05:50;100975.66;;;-9.13;49.45
46714;BME280;32445;51.376;10.874;2022-12-18T07:08:52;100981.47;;;-9.14;49.40
46714;BME280;32445;51.376;10.874;2022-12-18T07:11:53;100990.63;;;-9.14;49.33
46714;BME280;32445;51.376;10.874;2022-12-18T07:14:53;100989.66;;;-9.16;49.32
46714;BME280;32445;51.376;10.874;2022-12-18T07:17:53;100996.28;;;-9.17;49.33
46714;BME280;32445;51.376;10.874;2022-12-18T07:20:54;100992.69;;;-9.20;49.28
46714;BME280;32445;51.376;10.874;2022-12-18T07:23:54;100995.19;;;-9.20;49.47
46714;BME280;32445;51.376;10.874;2022-12-18T07:26:54;101000.97;;;-9.22;49.29
46714;BME280;32445;51.376;10.874;2022-12-18T07:29:55;101006.66;;;-9.24;49.19
46714;BME280;32445;51.376;10.874;2022-12-18T07:32:55;101001.63;;;-9.24;49.42
46714;BME280;32445;51.376;10.874;2022-12-18T07:35:56;100998.97;;;-9.26;49.35
46714;BME280;32445;51.376;10.874;2022-12-18T07:38:56;101003.03;;;-9.28;49.44
46714;BME280;32445;51.376;10.874;2022-12-18T07:41:56;101014.75;;;-9.28;49.41
46714;BME280;32445;51.376;10.874;2022-12-18T07:45:15;101014.59;;;-9.30;49.36
46714;BME280;32445;51.376;10.874;2022-12-18T07:48:16;101017.91;;;-9.31;49.45
46714;BME280;32445;51.376;10.874;2022-12-18T07:51:16;101020.41;;;-9.31;49.38
46714;BME280;32445;51.376;10.874;2022-12-18T07:54:17;101029.44;;;-9.33;49.35
46714;BME280;32445;51.376;10.874;2022-12-18T07:57:18;101031.97;;;-9.33;49.35
46714;BME280;32445;51.376;10.874;2022-12-18T08:00:18;101044.53;;;-9.33;49.40
46714;BME280;32445;51.376;10.874;2022-12-18T08:03:19;101043.66;;;-9.33;49.54
46714;BME280;32445;51.376;10.874;2022-12-18T08:06:19;101054.47;;;-9.34;49.50
46714;BME280;32445;51.376;10.874;2022-12-18T08:09:20;101058.03;;;-9.43;49.62
46714;BME280;32445;51.376;10.874;2022-12-18T08:12:20;101061.81;;;-9.48;49.63
46714;BME280;32445;51.376;10.874;2022-12-18T08:15:20;101059.06;;;-9.51;49.65
46714;BME280;32445;51.376;10.874;2022-12-18T08:18:21;101054.94;;;-9.61;49.98
46714;BME280;32445;51.376;10.874;2022-12-18T08:21:24;101057.06;;;-9.55;49.96
46714;BME280;32445;51.376;10.874;2022-12-18T08:24:25;101048.91;;;-9.52;49.84
46714;BME280;32445;51.376;10.874;2022-12-18T08:27:25;101042.56;;;-9.47;49.91
46714;BME280;32445;51.376;10.874;2022-12-18T08:30:26;101039.44;;;-9.45;50.02
46714;BME280;32445;51.376;10.874;2022-12-18T08:33:26;101026.13;;;-9.44;49.86
46714;BME280;32445;51.376;10.874;2022-12-18T08:36:26;101027.34;;;-9.39;49.61
46714;BME280;32445;51.376;10.874;2022-12-18T08:39:27;101027.72;;;-9.34;49.77
46714;BME280;32445;51.376;10.874;2022-12-18T08:42:27;101025.66;;;-9.28;50.01
46714;BME280;32445;51.376;10.874;2022-12-18T08:46:06;101007.44;;;-9.25;49.44
46714;BME280;32445;51.376;10.874;2022-12-18T08:49:07;100995.09;;;-9.22;49.54
46714;BME280;32445;51.376;10.874;2022-12-18T08:52:08;100998.47;;;-9.22;49.58
46714;BME280;32445;51.376;10.874;2022-12-18T08:55:09;101003.28;;;-9.25;49.53
46714;BME280;32445;51.376;10.874;2022-12-18T08:58:10;100994.75;;;-9.27;49.74
46714;BME280;32445;51.376;10.874;2022-12-18T09:01:11;100993.59;;;-9.30;50.13
46714;BME280;32445;51.376;10.874;2022-12-18T09:04:12;100990.47;;;-9.28;50.31
46714;BME280;32445;51.376;10.874;2022-12-18T09:07:14;100987.31;;;-9.25;50.15
46714;BME280;32445;51.376;10.874;2022-12-18T09:10:14;100978.75;;;-9.27;50.72
46714;BME280;32445;51.376;10.874;2022-12-18T09:13:15;100981.66;;;-9.23;50.89
46714;BME280;32445;51.376;10.874;2022-12-18T09:16:16;100982.63;;;-9.20;50.81
46714;BME280;32445;51.376;10.874;2022-12-18T09:19:16;100985.38;;;-9.17;50.98
46714;BME280;32445;51.376;10.874;2022-12-18T09:22:16;100992.16;;;-9.16;51.04
46714;BME280;32445;51.376;10.874;2022-12-18T09:25:17;100982.34;;;-9.13;51.40
46714;BME280;32445;51.376;10.874;2022-12-18T09:28:18;100975.13;;;-9.09;51.49
46714;BME280;32445;51.376;10.874;2022-12-18T09:31:20;100985.41;;;-9.06;51.74
46714;BME280;32445;51.376;10.874;2022-12-18T09:34:21;100980.66;;;-9.02;51.87
46714;BME280;32445;51.376;10.874;2022-12-18T09:37:22;100979.22;;;-8.99;52.63
46714;BME280;32445;51.376;10.874;2022-12-18T09:40:25;100968.63;;;-8.95;52.69
46714;BME280;32445;51.376;10.874;2022-12-18T09:43:30;100960.03;;;-8.87;52.46
46714;BME280;32445;51.376;10.874;2022-12-18T09:46:38;100957.09;;;-8.81;52.69
46714;BME280;32445;51.376;10.874;2022-12-18T09:49:42;100953.38;;;-8.74;52.59
46714;BME280;32445;51.376;10.874;2022-12-18T09:52:45;100950.78;;;-8.64;52.63
46714;BME280;32445;51.376;10.874;2022-12-18T09:55:49;100960.00;;;-8.53;52.88
46714;BME280;32445;51.376;10.874;2022-12-18T09:59:02;100956.41;;;-8.44;53.28
46714;BME280;32445;51.376;10.874;2022-12-18T10:02:33;100958.16;;;-8.31;53.33
46714;BME280;32445;51.376;10.874;2022-12-18T10:09:16;100947.00;;;-8.00;53.28
46714;BME280;32445;51.376;10.874;2022-12-18T10:12:29;100939.88;;;-7.82;53.40
46714;BME280;32445;51.376;10.874;2022-12-18T10:22:57;100942.41;;;-7.33;52.81
46714;BME280;32445;51.376;10.874;2022-12-18T10:26:09;100941.81;;;-7.17;52.63
46714;BME280;32445;51.376;10.874;2022-12-18T10:29:12;100952.84;;;-7.03;52.77
46714;BME280;32445;51.376;10.874;2022-12-18T10:32:17;100963.00;;;-6.89;52.87
46714;BME280;32445;51.376;10.874;2022-12-18T10:35:22;100970.63;;;-6.76;53.15
46714;BME280;32445;51.376;10.874;2022-12-18T10:38:28;100968.03;;;-6.64;52.92
46714;BME280;32445;51.376;10.874;2022-12-18T10:41:28;100974.03;;;-6.50;52.85
46714;BME280;32445;51.376;10.874;2022-12-18T10:44:30;100979.00;;;-6.38;53.16
46714;BME280;32445;51.376;10.874;2022-12-18T10:47:33;100980.78;;;-6.24;53.19
46714;BME280;32445;51.376;10.874;2022-12-18T10:50:35;100969.91;;;-6.10;53.02
46714;BME280;32445;51.376;10.874;2022-12-18T10:53:37;100965.03;;;-5.93;53.33
46714;BME280;32445;51.376;10.874;2022-12-18T10:56:40;100974.38;;;-5.79;53.36
46714;BME280;32445;51.376;10.874;2022-12-18T10:59:58;100953.34;;;-5.64;53.56
46714;BME280;32445;51.376;10.874;2022-12-18T11:02:58;100948.63;;;-5.45;53.11
46714;BME280;32445;51.376;10.874;2022-12-18T11:09:21;100937.94;;;-5.12;53.74
46714;BME280;32445;51.376;10.874;2022-12-18T11:12:22;100927.03;;;-4.96;53.35
46714;BME280;32445;51.376;10.874;2022-12-18T11:15:27;100924.53;;;-4.81;53.75
46714;BME280;32445;51.376;10.874;2022-12-18T11:18:32;100927.28;;;-4.63;53.82
46714;BME280;32445;51.376;10.874;2022-12-18T11:21:39;100932.53;;;-4.45;54.27
46714;BME280;32445;51.376;10.874;2022-12-18T11:24:40;100935.31;;;-4.26;54.24
46714;BME280;32445;51.376;10.874;2022-12-18T11:27:40;100933.81;;;-4.07;54.21
46714;BME280;32445;51.376;10.874;2022-12-18T11:30:47;100929.84;;;-3.87;54.90
46714;BME280;32445;51.376;10.874;2022-12-18T11:37:15;100893.69;;;-3.52;55.04
46714;BME280;32445;51.376;10.874;2022-12-18T11:40:27;100887.03;;;-3.33;54.80
46714;BME280;32445;51.376;10.874;2022-12-18T11:43:55;100886.94;;;-3.18;54.87
46714;BME280;32445;51.376;10.874;2022-12-18T11:47:09;100888.94;;;-2.96;54.88
46714;BME280;32445;51.376;10.874;2022-12-18T11:50:21;100892.25;;;-2.81;55.15
46714;BME280;32445;51.376;10.874;2022-12-18T11:53:25;100882.84;;;-2.65;55.23
46714;BME280;32445;51.376;10.874;2022-12-18T11:56:43;100886.22;;;-2.48;55.38
46714;BME280;32445;51.376;10.874;2022-12-18T12:19:46;100863.69;;;-1.49;55.58
46714;BME280;32445;51.376;10.874;2022-12-18T12:38:44;100832.34;;;-1.07;55.17
46714;BME280;32445;51.376;10.874;2022-12-18T12:41:46;100836.00;;;-1.00;55.23
46714;BME280;32445;51.376;10.874;2022-12-18T12:45:15;100838.66;;;-0.99;54.96
46714;BME280;32445;51.376;10.874;2022-12-18T12:48:38;100838.84;;;-0.94;54.88
46714;BME280;32445;51.376;10.874;2022-12-18T12:51:42;100841.69;;;-0.87;54.79
46714;BME280;32445;51.376;10.874;2022-12-18T12:54:44;100837.69;;;-0.81;54.77
46714;BME280;32445;51.376;10.874;2022-12-18T13:01:28;100835.31;;;-0.77;54.21
46714;BME280;32445;51.376;10.874;2022-12-18T13:07:54;100814.34;;;-0.70;54.25
46714;BME280;32445;51.376;10.874;2022-12-18T13:10:57;100798.31;;;-0.67;54.28
46714;BME280;32445;51.376;10.874;2022-12-18T13:14:28;100791.59;;;-0.65;53.96
46714;BME280;32445;51.376;10.874;2022-12-18T13:17:30;100780.56;;;-0.64;53.95
46714;BME280;32445;51.376;10.874;2022-12-18T13:20:42;100778.03;;;-0.64;53.79
46714;BME280;32445;51.376;10.874;2022-12-18T13:23:42;100777.28;;;-0.61;53.48
46714;BME280;32445;51.376;10.874;2022-12-18T13:26:43;100774.75;;;-0.61;53.08
46714;BME280;32445;51.376;10.874;2022-12-18T13:29:45;100782.38;;;-0.61;53.53
46714;BME280;32445;51.376;10.874;2022-12-18T13:32:45;100799.34;;;-0.62;53.19
46714;BME280;32445;51.376;10.874;2022-12-18T13:38:46;100812.88;;;-0.64;53.19
46714;BME280;32445;51.376;10.874;2022-12-18T13:41:53;100792.41;;;-0.66;53.00
46714;BME280;32445;51.376;10.874;2022-12-18T13:44:53;100793.22;;;-0.67;52.60
46714;BME280;32445;51.376;10.874;2022-12-18T13:47:54;100800.81;;;-0.68;52.46
46714;BME280;32445;51.376;10.874;2022-12-18T13:51:04;100814.28;;;-0.71;52.51
46714;BME280;32445;51.376;10.874;2022-12-18T13:57:29;100805.56;;;-0.76;52.05
46714;BME280;32445;51.376;10.874;2022-12-18T14:00:31;100805.50;;;-0.78;52.39
46714;BME280;32445;51.376;10.874;2022-12-18T14:03:31;100809.69;;;-0.80;52.25
46714;BME280;32445;51.376;10.874;2022-12-18T14:06:32;100801.94;;;-0.83;52.06
46714;BME280;32445;51.376;10.874;2022-12-18T14:09:56;100788.91;;;-0.89;51.87
46714;BME280;32445;51.376;10.874;2022-12-18T14:13:03;100789.75;;;-0.90;52.03
46714;BME280;32445;51.376;10.874;2022-12-18T14:16:06;100787.03;;;-0.93;51.61
46714;BME280;32445;51.376;10.874;2022-12-18T14:19:14;100781.81;;;-0.96;51.34
46714;BME280;32445;51.376;10.874;2022-12-18T14:22:21;100784.25;;;-0.99;51.25
46714;BME280;32445;51.376;10.874;2022-12-18T14:25:29;100779.81;;;-1.03;51.44
46714;BME280;32445;51.376;10.874;2022-12-18T14:28:29;100790.75;;;-1.06;51.39
46714;BME280;32445;51.376;10.874;2022-12-18T14:31:30;100784.69;;;-1.10;51.43
46714;BME280;32445;51.376;10.874;2022-12-18T14:34:31;100792.19;;;-1.13;51.02
46714;BME280;32445;51.376;10.874;2022-12-18T14:37:32;100790.31;;;-1.17;51.23
46714;BME280;32445;51.376;10.874;2022-12-18T14:40:32;100785.91;;;-1.21;50.92
46714;BME280;32445;51.376;10.874;2022-12-18T14:43:35;100782.28;;;-1.26;51.02
46714;BME280;32445;51.376;10.874;2022-12-18T14:46:37;100789.72;;;-1.31;51.00
46714;BME280;32445;51.376;10.874;2022-12-18T14:49:41;100789.53;;;-1.35;50.84
46714;BME280;32445;51.376;10.874;2022-12-18T14:52:42;100791.00;;;-1.41;50.90
46714;BME280;32445;51.376;10.874;2022-12-18T14:55:46;100786.63;;;-1.45;50.57
46714;BME280;32445;51.376;10.874;2022-12-18T14:58:49;100786.38;;;-1.49;50.50
46714;BME280;32445;51.376;10.874;2022-12-18T15:02:01;100780.19;;;-1.56;50.46
46714;BME280;32445;51.376;10.874;2022-12-18T15:08:32;100778.84;;;-1.67;50.28
46714;BME280;32445;51.376;10.874;2022-12-18T15:14:41;100767.44;;;-1.76;50.42
46714;BME280;32445;51.376;10.874;2022-12-18T15:17:41;100763.88;;;-1.79;50.24
46714;BME280;32445;51.376;10.874;2022-12-18T15:20:44;100767.03;;;-1.85;50.15
46714;BME280;32445;51.376;10.874;2022-12-18T15:23:52;100762.63;;;-1.89;50.19
46714;BME280;32445;51.376;10.874;2022-12-18T15:26:53;100757.38;;;-1.92;49.92
46714;BME280;32445;51.376;10.874;2022-12-18T15:30:17;100756.25;;;-1.99;50.14
46714;BME280;32445;51.376;10.874;2022-12-18T15:33:30;100753.56;;;-2.02;50.27
46714;BME280;32445;51.376;10.874;2022-12-18T15:36:31;100751.75;;;-2.04;50.13
46714;BME280;32445;51.376;10.874;2022-12-18T15:39:31;100738.75;;;-2.11;49.88
46714;BME280;32445;51.376;10.874;2022-12-18T15:42:32;100736.06;;;-2.14;50.20
46714;BME280;32445;51.376;10.874;2022-12-18T15:45:51;100747.78;;;-2.17;50.24
46714;BME280;32445;51.376;10.874;2022-12-18T15:48:55;100734.94;;;-2.20;49.92
46714;BME280;32445;51.376;10.874;2022-12-18T15:51:58;100731.38;;;-2.24;50.17
46714;BME280;32445;51.376;10.874;2022-12-18T15:54:59;100732.03;;;-2.28;50.09
46714;BME280;32445;51.376;10.874;2022-12-18T15:58:18;100749.69;;;-2.31;49.79
46714;BME280;32445;51.376;10.874;2022-12-18T16:01:21;100741.84;;;-2.36;50.14
46714;BME280;32445;51.376;10.874;2022-12-18T16:04:22;100746.81;;;-2.39;49.72
46714;BME280;32445;51.376;10.874;2022-12-18T16:07:23;100737.28;;;-2.43;50.46
46714;BME280;32445;51.376;10.874;2022-12-18T16:10:25;100726.16;;;-2.45;49.87
46714;BME280;32445;51.376;10.874;2022-12-18T16:13:26;100729.47;;;-2.48;49.93
46714;BME280;32445;51.376;10.874;2022-12-18T16:16:26;100724.13;;;-2.52;49.82
46714;BME280;32445;51.376;10.874;2022-12-18T16:19:27;100729.16;;;-2.54;50.09
46714;BME280;32445;51.376;10.874;2022-12-18T16:22:29;100739.13;;;-2.58;49.73
46714;BME280;32445;51.376;10.874;2022-12-18T16:25:30;100729.66;;;-2.61;49.84
46714;BME280;32445;51.376;10.874;2022-12-18T16:28:31;100731.28;;;-2.63;49.87
46714;BME280;32445;51.376;10.874;2022-12-18T16:31:31;100725.16;;;-2.67;49.73
46714;BME280;32445;51.376;10.874;2022-12-18T16:34:33;100727.56;;;-2.70;49.78
46714;BME280;32445;51.376;10.874;2022-12-18T16:37:34;100710.50;;;-2.72;49.93
46714;BME280;32445;51.376;10.874;2022-12-18T16:40:34;100708.72;;;-2.75;50.16
46714;BME280;32445;51.376;10.874;2022-12-18T16:43:54;100709.44;;;-2.78;49.60
46714;BME280;32445;51.376;10.874;2022-12-18T16:46:55;100708.47;;;-2.80;50.26
46714;BME280;32445;51.376;10.874;2022-12-18T16:50:01;100704.13;;;-2.82;49.93
46714;BME280;32445;51.376;10.874;2022-12-18T16:53:02;100708.25;;;-2.84;50.27
46714;BME280;32445;51.376;10.874;2022-12-18T16:56:02;100704.78;;;-2.86;50.19
46714;BME280;32445;51.376;10.874;2022-12-18T16:59:03;100700.50;;;-2.87;49.98
46714;BME280;32445;51.376;10.874;2022-12-18T17:02:03;100694.38;;;-2.91;50.32
46714;BME280;32445;51.376;10.874;2022-12-18T17:05:04;100705.44;;;-2.90;50.06
46714;BME280;32445;51.376;10.874;2022-12-18T17:08:05;100704.41;;;-2.94;50.37
46714;BME280;32445;51.376;10.874;2022-12-18T17:11:08;100695.91;;;-2.94;50.67
46714;BME280;32445;51.376;10.874;2022-12-18T17:14:13;100690.69;;;-2.98;50.50
46714;BME280;32445;51.376;10.874;2022-12-18T17:17:14;100685.63;;;-2.98;50.32
46714;BME280;32445;51.376;10.874;2022-12-18T17:20:15;100688.09;;;-2.99;50.28